This is the latest recevied weather packets stored in our database for station/object F4FEB-13. If no packets are shown the sender has not sent any weather packets the latest 10 day(s).
| Time | Temp. | Humidity | Pressure | Rain* | Wind** | Luminosity | Snow |
|---|---|---|---|---|---|---|---|
| 1777343981 | 10.56° C | 54% | 1014.5 hPa | 0 mm | - | - | - |
| 1777343681 | 10.56° C | 53% | 1014.6 hPa | 0 mm | - | - | - |
| 1777343381 | 10.56° C | 53% | 1014.6 hPa | 0 mm | - | - | - |
| 1777343081 | 10.56° C | 53% | 1014.6 hPa | 0 mm | - | - | - |
| 1777342481 | 10.56° C | 53% | 1014.7 hPa | 0 mm | - | - | - |
| 1777342181 | 10.56° C | 53% | 1014.8 hPa | 0 mm | - | - | - |
| 1777341282 | 11.11° C | 51% | 1014.9 hPa | 0 mm | - | - | - |
| 1777340682 | 11.67° C | 51% | 1014.8 hPa | 0 mm | - | - | - |
| 1777340382 | 11.67° C | 50% | 1015 hPa | 0 mm | - | - | - |
| 1777339782 | 11.67° C | 49% | 1015.2 hPa | 0 mm | - | - | - |
| 1777339482 | 11.67° C | 49% | 1015.3 hPa | 0 mm | - | - | - |
| 1777338882 | 11.67° C | 49% | 1015.3 hPa | 0 mm | - | - | - |
| 1777338282 | 12.22° C | 49% | 1015.3 hPa | 0 mm | - | - | - |
| 1777337982 | 12.22° C | 48% | 1015.4 hPa | 0 mm | - | - | - |
| 1777335582 | 12.22° C | 48% | 1015.6 hPa | 0 mm | - | - | - |
| 1777334982 | 12.22° C | 48% | 1015.6 hPa | 0 mm | - | - | - |
| 1777313083 | 16.67° C | 47% | 1016.1 hPa | 0 mm | - | - | - |
| 1777312786 | 16.67° C | 46% | 1016.1 hPa | 0 mm | - | - | - |
| 1777312783 | 16.67° C | 46% | 1016.1 hPa | 0 mm | - | - | - |
| 1777312483 | 16.67° C | 47% | 1016.1 hPa | 0 mm | - | - | - |
| 1777312183 | 17.22° C | 46% | 1016.1 hPa | 0 mm | - | - | - |
| 1777311883 | 17.22° C | 45% | 1016.2 hPa | 0 mm | - | - | - |
| 1777311583 | 17.22° C | 45% | 1016.1 hPa | 0 mm | - | - | - |
| 1777311283 | 17.22° C | 48% | 1016.1 hPa | 0 mm | - | - | - |
| 1777310983 | 17.22° C | 43% | 1016.2 hPa | 0 mm | - | - | - |
* Rain latest hour (hover to see other rain measurements)
** Current wind speed in m/s (hover to see current wind gust speed)